Main page
Satellite images 10-day forecastsClimateMarine weather Cyclones Lightning AirportsFAQ Newsletter About
Weather : Europe Africa North America South America Asia Australia-Oceania Others
Languages Contact

San Fernando, Argentina

San Fernando Airport

latitude: 34-27-11S, longitude: 058-35-23W, elevation: 3 m


METAR: SADF 051000Z 05007KT 9999 FEW035 BKN100 14/10 Q1015
TAF: SADF 050500Z 0506/0606 07010KT CAVOK TX20/0518Z TN12/0510Z BECMGO 0515/0516 9999 BKN020 FEW040TCU

Time: 07:23 (10:23 UTC)

Current weather observation

The report was made 23 minutes ago, at 10:00 UTC
Wind 7 kt from the Northeast
Temperature 14°C
Humidity 77%
Pressure 1015 hPa
Visibility 10 km or more
Few clouds at a height of 3500 ft
Broken clouds at a height of 10000 ft

Change units

Forecast

The report was made 5 hours and 23 minutes ago, at 05:00 UTC
Forecast valid from 05 at 06 UTC to 06 at 06 UTC
Wind 10 kt from the East/Northeast
Visibility 10 km or more
Broken clouds at a height of 2000 ft
Few clouds at a height of 4000 ft, Towering cumulus.
The information on this site is subject to a disclaimer
Weather : Europe Africa North America South America Asia Australia-Oceania Others
Satellite images 10-day forecastsClimateMarine weather Cyclones Lightning AirportsFAQ Languages Contact Newsletter About